createdAt,value
2018-12-05T00:01:55.478Z,85.04
2018-12-05T00:04:58.713Z,85.34
2018-12-05T00:08:01.943Z,85.17
2018-12-05T00:11:05.294Z,84.52
2018-12-05T00:14:08.551Z,84.45
2018-12-05T00:17:11.909Z,84.53
2018-12-05T00:20:15.148Z,84.05
2018-12-05T00:23:18.452Z,84.03
2018-12-05T00:26:21.676Z,83.78
2018-12-05T00:29:24.956Z,84.21
2018-12-05T00:32:28.243Z,84.13
2018-12-05T00:35:31.468Z,83.94
2018-12-05T00:38:34.723Z,83.46
2018-12-05T00:41:38.052Z,83.93
2018-12-05T00:44:41.289Z,84.42
2018-12-05T00:47:44.512Z,84.95
2018-12-05T00:50:47.742Z,84.12
2018-12-05T00:53:50.952Z,84.19
2018-12-05T00:56:54.193Z,83.14
2018-12-05T00:59:57.411Z,83.99
2018-12-05T01:03:00.673Z,82.64
2018-12-05T01:06:03.933Z,82.87
2018-12-05T01:12:23.837Z,83.76
2018-12-05T01:15:27.164Z,84.12
2018-12-05T01:18:30.417Z,84.15
2018-12-05T01:21:33.662Z,84.87
2018-12-05T01:24:36.890Z,85.09
2018-12-05T01:27:40.314Z,84.17
2018-12-05T01:30:43.620Z,84.77
2018-12-05T01:33:46.862Z,84.91
2018-12-05T01:36:50.088Z,85.76
2018-12-05T01:39:53.325Z,85.77
2018-12-05T01:42:56.574Z,85.63
2018-12-05T01:45:59.885Z,85.97
2018-12-05T01:49:03.188Z,85.85
2018-12-05T01:52:06.419Z,85.92
2018-12-05T01:55:09.691Z,84.62
2018-12-05T01:58:13.014Z,84.42
2018-12-05T02:01:16.273Z,84.46
2018-12-05T02:04:19.508Z,85.04
2018-12-05T02:07:22.766Z,84.69
2018-12-05T02:10:26.001Z,83.52
2018-12-05T02:13:29.294Z,83.71
2018-12-05T02:16:32.517Z,85.39
2018-12-05T02:19:35.857Z,85.53
2018-12-05T02:22:39.149Z,86.34
2018-12-05T02:25:42.488Z,85.60
2018-12-05T02:28:45.846Z,83.77
2018-12-05T02:31:49.049Z,83.06
2018-12-05T02:34:52.432Z,82.95
2018-12-05T02:37:55.839Z,83.27
2018-12-05T02:40:59.064Z,83.00
2018-12-05T02:44:02.335Z,83.70
2018-12-05T02:47:05.735Z,81.47
2018-12-05T02:50:09.077Z,80.87
2018-12-05T02:53:12.326Z,81.77
2018-12-05T02:56:15.528Z,82.02
2018-12-05T02:59:18.818Z,82.67
2018-12-05T03:02:22.040Z,82.24
2018-12-05T03:05:25.272Z,82.97
2018-12-05T03:08:28.501Z,83.82
2018-12-05T03:11:31.801Z,83.80
2018-12-05T03:14:35.024Z,83.77
2018-12-05T03:17:38.324Z,83.14
2018-12-05T03:20:41.561Z,83.55
2018-12-05T03:23:44.872Z,83.71
2018-12-05T03:26:48.092Z,83.50
2018-12-05T03:29:51.378Z,83.63
2018-12-05T03:32:54.831Z,84.21
2018-12-05T03:35:58.098Z,83.96
2018-12-05T03:39:01.412Z,83.43
2018-12-05T03:42:04.772Z,83.83
2018-12-05T03:45:08.119Z,84.64
2018-12-05T03:48:11.437Z,85.28
2018-12-05T03:51:14.813Z,84.45
2018-12-05T03:54:18.157Z,85.10
2018-12-05T03:57:21.467Z,85.16
2018-12-05T04:00:24.833Z,85.33
2018-12-05T04:03:28.078Z,86.11
2018-12-05T04:06:31.390Z,86.40
2018-12-05T04:09:34.640Z,85.89
2018-12-05T04:12:40.646Z,85.25
2018-12-05T04:15:43.085Z,85.52
2018-12-05T04:18:46.355Z,85.30
2018-12-05T04:21:49.560Z,84.92
2018-12-05T04:24:52.877Z,84.18
2018-12-05T04:27:56.080Z,84.41
2018-12-05T04:30:59.310Z,84.80
2018-12-05T04:34:02.535Z,84.97
2018-12-05T04:37:05.861Z,85.80
2018-12-05T04:40:09.262Z,85.41
2018-12-05T04:43:12.568Z,84.60
2018-12-05T04:46:15.798Z,84.05
2018-12-05T04:49:19.023Z,83.03
2018-12-05T04:52:22.349Z,83.68
2018-12-05T04:55:25.577Z,84.52
2018-12-05T04:58:28.895Z,84.76
2018-12-05T05:01:32.144Z,85.50
2018-12-05T05:04:35.463Z,84.66
2018-12-05T05:07:38.813Z,84.86
2018-12-05T05:10:42.072Z,84.57
2018-12-05T05:13:45.396Z,84.40
2018-12-05T05:16:48.641Z,84.63
2018-12-05T05:19:51.874Z,85.10
2018-12-05T05:22:55.099Z,84.90
2018-12-05T05:25:58.466Z,84.48
2018-12-05T05:29:01.720Z,83.80
2018-12-05T05:32:05.048Z,83.95
2018-12-05T05:35:08.320Z,84.83
2018-12-05T05:38:11.652Z,85.16
2018-12-05T05:41:14.953Z,85.96
2018-12-05T05:44:18.184Z,86.19
2018-12-05T05:47:21.400Z,86.12
2018-12-05T05:50:24.709Z,86.25
2018-12-05T05:53:27.958Z,86.05
2018-12-05T05:56:31.212Z,86.22
2018-12-05T05:59:34.529Z,86.11
2018-12-05T06:02:37.872Z,85.80
2018-12-05T06:05:41.210Z,86.26
2018-12-05T06:08:44.441Z,85.96
2018-12-05T06:11:47.668Z,86.14
2018-12-05T06:14:51.062Z,86.73
2018-12-05T06:17:54.264Z,85.97
2018-12-05T06:20:57.554Z,84.87
2018-12-05T06:24:00.752Z,84.41
2018-12-05T06:27:04.031Z,84.83
2018-12-05T06:30:07.849Z,85.17
2018-12-05T06:33:11.106Z,85.57
2018-12-05T06:36:14.345Z,85.49
2018-12-05T06:39:17.548Z,85.10
2018-12-05T06:42:20.777Z,85.26
2018-12-05T06:45:24.090Z,85.38
2018-12-05T06:48:27.299Z,85.41
2018-12-05T06:51:30.529Z,85.61
2018-12-05T06:54:33.749Z,85.93
2018-12-05T06:57:37.006Z,85.36
2018-12-05T07:00:40.221Z,85.67
2018-12-05T07:03:43.444Z,85.41
2018-12-05T07:06:46.702Z,84.87
2018-12-05T07:09:49.929Z,85.08
2018-12-05T07:12:53.165Z,85.58
2018-12-05T07:15:56.418Z,85.79
2018-12-05T07:18:59.721Z,85.46
2018-12-05T07:22:03.089Z,85.79
2018-12-05T07:25:06.344Z,85.81
2018-12-05T07:28:09.577Z,84.64
2018-12-05T07:31:12.806Z,84.65
2018-12-05T07:34:16.057Z,84.21
2018-12-05T07:37:19.281Z,83.71
2018-12-05T07:40:22.500Z,83.44
2018-12-05T07:43:25.737Z,83.83
2018-12-05T07:46:28.960Z,84.45
2018-12-05T07:49:32.213Z,85.20
2018-12-05T07:52:35.525Z,85.44
2018-12-05T07:55:38.772Z,85.58
2018-12-05T07:58:42.006Z,85.11
2018-12-05T08:01:45.361Z,85.46
2018-12-05T08:04:48.576Z,84.25
2018-12-05T08:07:51.806Z,84.30
2018-12-05T08:10:55.122Z,84.36
2018-12-05T08:13:58.319Z,84.14
2018-12-05T08:17:01.606Z,84.17
2018-12-05T08:20:05.901Z,84.19
2018-12-05T08:23:09.233Z,84.14
2018-12-05T08:26:12.450Z,84.40
2018-12-05T08:29:15.673Z,84.73
2018-12-05T08:32:18.928Z,84.90
2018-12-05T08:35:22.280Z,85.13
2018-12-05T08:38:25.504Z,84.95
2018-12-05T08:41:28.741Z,84.72
2018-12-05T08:44:31.968Z,84.39
2018-12-05T08:47:35.213Z,84.52
2018-12-05T08:50:38.437Z,83.79
2018-12-05T08:53:41.690Z,83.33
2018-12-05T08:56:44.925Z,83.42
2018-12-05T08:59:48.182Z,83.15
2018-12-05T09:02:51.424Z,82.94
2018-12-05T09:05:54.777Z,83.33
2018-12-05T09:08:58.013Z,83.76
2018-12-05T09:12:01.267Z,84.05
2018-12-05T09:15:07.174Z,84.09
2018-12-05T09:18:10.581Z,83.61
2018-12-05T09:21:13.865Z,83.66
2018-12-05T09:24:17.222Z,83.08
2018-12-05T09:27:20.429Z,82.40
2018-12-05T09:30:23.773Z,82.50
2018-12-05T09:33:27.027Z,82.08
2018-12-05T09:36:30.285Z,82.53
2018-12-05T09:39:33.536Z,83.11
2018-12-05T09:42:36.788Z,82.32
2018-12-05T09:45:40.199Z,82.32
2018-12-05T09:48:43.423Z,81.79
2018-12-05T09:51:46.690Z,82.15
2018-12-05T09:54:49.898Z,82.53
2018-12-05T09:57:53.286Z,81.20
2018-12-05T10:00:56.488Z,83.22
2018-12-05T10:03:59.757Z,82.94
2018-12-05T10:07:02.987Z,82.25
2018-12-05T10:10:07.081Z,83.79
2018-12-05T10:13:10.312Z,84.00
2018-12-05T10:16:13.585Z,84.42
2018-12-05T10:19:16.821Z,83.29
2018-12-05T10:22:20.050Z,82.07
2018-12-05T10:25:23.270Z,82.85
2018-12-05T10:28:26.504Z,82.04
2018-12-05T10:31:29.728Z,82.27
2018-12-05T10:34:32.953Z,82.50
2018-12-05T10:37:36.184Z,83.05
2018-12-05T10:40:39.445Z,82.81
2018-12-05T10:43:42.669Z,81.51
2018-12-05T10:46:45.982Z,80.37
2018-12-05T10:49:49.336Z,80.42
2018-12-05T10:52:52.548Z,80.91
2018-12-05T10:55:55.827Z,79.92
2018-12-05T10:58:59.064Z,79.16
2018-12-05T11:02:07.889Z,78.55
2018-12-05T11:05:16.777Z,79.30
2018-12-05T11:11:47.084Z,77.22
2018-12-05T11:14:55.801Z,76.95
2018-12-05T11:18:04.474Z,77.13
2018-12-05T11:21:13.077Z,78.10
2018-12-05T11:27:36.513Z,80.11
2018-12-05T11:30:39.785Z,79.77
2018-12-05T11:33:43.010Z,79.70
2018-12-05T11:36:46.274Z,78.88
2018-12-05T11:39:49.494Z,78.76
2018-12-05T11:42:52.804Z,76.94
2018-12-05T11:45:56.045Z,77.31
2018-12-05T11:48:59.360Z,75.39
2018-12-05T11:52:02.570Z,76.30
2018-12-05T11:55:05.956Z,76.14
2018-12-05T11:58:09.354Z,75.98
2018-12-05T12:01:12.557Z,76.26
2018-12-05T12:04:15.817Z,71.44
2018-12-05T12:07:19.146Z,65.98
2018-12-05T12:13:43.293Z,54.15
2018-12-05T12:16:46.654Z,51.30
2018-12-05T12:19:49.937Z,47.73
2018-12-05T12:22:53.243Z,53.56
2018-12-05T12:25:56.500Z,61.80
2018-12-05T12:28:59.745Z,65.22
2018-12-05T12:32:02.972Z,67.29
2018-12-05T12:35:06.245Z,69.35
2018-12-05T12:38:09.469Z,70.05
2018-12-05T12:41:12.713Z,67.18
2018-12-05T12:44:15.944Z,66.92
2018-12-05T12:47:19.177Z,63.46
2018-12-05T12:50:22.429Z,60.01
2018-12-05T12:53:25.780Z,57.85
2018-12-05T12:56:29.017Z,55.13
2018-12-05T12:59:32.297Z,51.33
2018-12-05T13:02:35.608Z,50.96
2018-12-05T13:05:38.893Z,50.39
2018-12-05T13:08:42.208Z,49.54
2018-12-05T13:11:45.526Z,53.18
2018-12-05T13:14:48.780Z,56.06
2018-12-05T13:17:52.036Z,57.43
2018-12-05T13:20:55.374Z,58.27
2018-12-05T13:23:58.636Z,60.85
2018-12-05T13:27:01.875Z,61.99
2018-12-05T13:30:05.569Z,61.85
2018-12-05T13:33:08.870Z,64.55
2018-12-05T13:36:12.157Z,65.87
2018-12-05T13:39:15.464Z,66.25
2018-12-05T13:42:18.673Z,65.17
2018-12-05T13:45:21.961Z,61.64
2018-12-05T13:48:25.204Z,59.99
2018-12-05T13:51:28.477Z,62.29
2018-12-05T13:54:31.718Z,63.61
2018-12-05T13:57:34.972Z,66.97
2018-12-05T14:00:38.341Z,68.23
2018-12-05T14:03:41.567Z,68.67
2018-12-05T14:06:44.796Z,70.95
2018-12-05T14:09:48.035Z,70.72
2018-12-05T14:12:51.285Z,71.82
2018-12-05T14:15:54.512Z,71.87
2018-12-05T14:18:57.740Z,72.73
2018-12-05T14:22:00.993Z,72.22
2018-12-05T14:25:06.281Z,72.93
2018-12-05T14:28:09.508Z,72.94
2018-12-05T14:31:12.789Z,73.13
2018-12-05T14:34:16.016Z,73.20
2018-12-05T14:37:19.272Z,73.20
2018-12-05T14:40:22.534Z,73.12
2018-12-05T14:43:25.737Z,72.89
2018-12-05T14:46:29.037Z,73.94
2018-12-05T14:49:32.248Z,73.90
2018-12-05T14:52:35.529Z,74.50
2018-12-05T14:55:38.845Z,74.39
2018-12-05T14:58:42.069Z,74.90
2018-12-05T15:01:45.313Z,74.91
2018-12-05T15:04:48.537Z,75.38
2018-12-05T15:07:51.821Z,75.38
2018-12-05T15:10:55.053Z,76.37
2018-12-05T15:13:58.495Z,77.32
2018-12-05T15:17:01.703Z,77.37
2018-12-05T15:20:04.973Z,77.34
2018-12-05T15:23:08.220Z,76.90
2018-12-05T15:26:11.507Z,77.67
2018-12-05T15:29:14.716Z,77.41
2018-12-05T15:32:17.932Z,77.72
2018-12-05T15:35:21.197Z,77.39
2018-12-05T15:38:24.465Z,77.83
2018-12-05T15:41:27.728Z,78.05
2018-12-05T15:44:30.984Z,78.82
2018-12-05T15:47:34.405Z,79.74
2018-12-05T15:50:37.714Z,79.27
2018-12-05T15:53:40.997Z,79.11
2018-12-05T15:56:44.233Z,79.01
2018-12-05T15:59:47.588Z,79.48
2018-12-05T16:02:50.841Z,79.64
2018-12-05T16:05:54.139Z,79.95
2018-12-05T16:08:57.365Z,79.45
2018-12-05T16:12:00.616Z,79.69
2018-12-05T16:15:04.542Z,79.65
2018-12-05T16:18:07.848Z,79.21
2018-12-05T16:21:11.076Z,79.23
2018-12-05T16:24:14.333Z,78.83
2018-12-05T16:27:17.674Z,79.00
2018-12-05T16:30:20.937Z,79.62
2018-12-05T16:33:24.169Z,79.97
2018-12-05T16:36:27.518Z,80.35
2018-12-05T16:39:30.729Z,80.39
2018-12-05T16:42:34.009Z,79.83
2018-12-05T16:45:37.225Z,80.15
2018-12-05T16:48:40.503Z,79.68
2018-12-05T16:51:43.846Z,80.66
2018-12-05T16:54:47.204Z,80.39
2018-12-05T16:57:50.475Z,80.60
2018-12-05T17:00:53.691Z,80.96
2018-12-05T17:03:56.913Z,81.17
2018-12-05T17:07:00.149Z,81.01
2018-12-05T17:10:03.869Z,81.15
2018-12-05T17:13:07.213Z,80.51
2018-12-05T17:16:17.678Z,80.54
2018-12-05T17:19:15.905Z,80.38
2018-12-05T17:22:19.192Z,80.05
2018-12-05T17:25:22.461Z,80.26
2018-12-05T17:28:25.701Z,80.35
2018-12-05T17:31:29.067Z,80.46
2018-12-05T17:34:32.274Z,80.34
2018-12-05T17:37:35.882Z,80.14
2018-12-05T17:40:39.156Z,80.93
2018-12-05T17:43:42.509Z,80.40
2018-12-05T17:46:48.228Z,80.80
2018-12-05T17:49:51.482Z,80.71
2018-12-05T17:52:54.816Z,81.11
2018-12-05T17:55:58.082Z,81.00
2018-12-05T17:59:01.330Z,80.85
2018-12-05T18:02:04.561Z,81.53
2018-12-05T18:05:08.012Z,81.06
2018-12-05T18:08:11.233Z,81.17
2018-12-05T18:11:14.464Z,81.36
2018-12-05T18:14:17.764Z,81.13
2018-12-05T18:17:20.988Z,81.25
2018-12-05T18:20:24.245Z,80.60
2018-12-05T18:23:27.528Z,80.58
2018-12-05T18:26:30.766Z,80.32
2018-12-05T18:29:34.048Z,80.82
2018-12-05T18:32:37.319Z,81.42
2018-12-05T18:35:40.642Z,81.41
2018-12-05T18:38:44.010Z,81.18
2018-12-05T18:41:47.226Z,80.71
2018-12-05T18:44:50.466Z,80.93
2018-12-05T18:47:53.821Z,80.63
2018-12-05T18:50:57.072Z,80.96
2018-12-05T18:54:00.317Z,80.89
2018-12-05T18:57:09.442Z,80.59
2018-12-05T19:00:09.873Z,80.35
2018-12-05T19:03:13.303Z,80.97
2018-12-05T19:06:16.790Z,81.54
2018-12-05T19:09:26.714Z,81.32
2018-12-05T19:12:26.817Z,81.02
2018-12-05T19:15:30.101Z,80.31
2018-12-05T19:18:33.512Z,80.20
2018-12-05T19:21:36.848Z,80.61
2018-12-05T19:24:40.310Z,80.36
2018-12-05T19:27:43.581Z,80.19
2018-12-05T19:30:46.888Z,81.12
2018-12-05T19:33:50.201Z,81.46
2018-12-05T19:36:54.421Z,81.58
2018-12-05T19:39:58.633Z,81.13
2018-12-05T19:43:01.907Z,81.42
2018-12-05T19:46:05.295Z,80.76
2018-12-05T19:49:08.567Z,80.99
2018-12-05T19:52:11.847Z,80.49
2018-12-05T19:55:15.160Z,80.06
2018-12-05T19:58:18.440Z,80.37
2018-12-05T20:01:21.657Z,81.16
2018-12-05T20:04:24.948Z,81.63
2018-12-05T20:07:28.260Z,81.91
2018-12-05T20:10:31.480Z,82.34
2018-12-05T20:13:35.942Z,81.81
2018-12-05T20:16:39.207Z,82.19
2018-12-05T20:19:42.419Z,81.98
2018-12-05T20:22:45.775Z,81.81
2018-12-05T20:25:49.003Z,82.49
2018-12-05T20:28:52.263Z,82.41
2018-12-05T20:31:55.498Z,82.27
2018-12-05T20:34:59.193Z,81.72
2018-12-05T20:38:02.580Z,81.98
2018-12-05T20:41:05.876Z,81.92
2018-12-05T20:44:09.137Z,81.41
2018-12-05T20:47:12.524Z,81.22
2018-12-05T20:50:15.817Z,81.33
2018-12-05T20:53:19.280Z,80.89
2018-12-05T20:56:22.576Z,80.87
2018-12-05T20:59:25.875Z,81.11
2018-12-05T21:02:29.744Z,81.37
2018-12-05T21:05:33.124Z,81.37
2018-12-05T21:08:36.521Z,81.79
2018-12-05T21:11:39.766Z,81.55
2018-12-05T21:14:43.081Z,81.51
2018-12-05T21:17:46.313Z,81.43
2018-12-05T21:20:49.652Z,81.11
2018-12-05T21:23:52.909Z,80.72
2018-12-05T21:26:57.397Z,80.34
2018-12-05T21:30:00.718Z,80.24
2018-12-05T21:33:03.999Z,80.65
2018-12-05T21:36:07.229Z,80.29
2018-12-05T21:39:10.505Z,79.96
2018-12-05T21:42:14.281Z,80.43
2018-12-05T21:45:17.561Z,80.00
2018-12-05T21:48:20.804Z,80.05
2018-12-05T21:51:24.117Z,79.93
2018-12-05T21:54:27.477Z,80.96
2018-12-05T21:57:30.896Z,80.99
2018-12-05T22:00:34.276Z,80.39
2018-12-05T22:03:37.573Z,79.76
2018-12-05T22:06:40.949Z,79.99
2018-12-05T22:09:44.272Z,80.72
2018-12-05T22:12:47.501Z,80.35
2018-12-05T22:15:50.948Z,80.88
2018-12-05T22:18:54.250Z,80.91
2018-12-05T22:21:57.674Z,81.48
2018-12-05T22:25:00.984Z,81.53
2018-12-05T22:28:04.273Z,81.17
2018-12-05T22:31:07.529Z,81.82
2018-12-05T22:34:10.750Z,81.92
2018-12-05T22:37:14.059Z,82.13
2018-12-05T22:40:17.349Z,81.82
2018-12-05T22:43:20.609Z,81.68
2018-12-05T22:46:23.853Z,81.88
2018-12-05T22:49:27.106Z,81.89
2018-12-05T22:52:30.471Z,82.35
2018-12-05T22:55:33.713Z,82.78
2018-12-05T22:58:36.953Z,82.80
2018-12-05T23:01:40.179Z,82.52
2018-12-05T23:04:43.589Z,82.52
2018-12-05T23:07:46.863Z,82.33
2018-12-05T23:10:50.169Z,83.16
2018-12-05T23:13:53.450Z,83.28
2018-12-05T23:16:56.752Z,83.25
2018-12-05T23:20:00.048Z,84.08
2018-12-05T23:23:03.312Z,84.37
2018-12-05T23:26:06.590Z,84.09
2018-12-05T23:29:09.896Z,84.11
2018-12-05T23:32:13.125Z,84.35
2018-12-05T23:35:16.419Z,85.25
2018-12-05T23:38:19.757Z,84.78
2018-12-05T23:41:22.982Z,84.48
2018-12-05T23:44:26.237Z,84.66
2018-12-05T23:47:29.486Z,84.33
2018-12-05T23:50:32.710Z,85.43
2018-12-05T23:53:35.974Z,85.58
2018-12-05T23:56:39.196Z,85.89
2018-12-05T23:59:42.504Z,85.60
